createdAt,value
2023-04-07T00:00:09.816Z,14.00
2023-04-07T00:05:06.750Z,13.97
2023-04-07T00:09:59.928Z,14.43
2023-04-07T00:14:55.537Z,16.90
2023-04-07T00:19:50.128Z,14.93
2023-04-07T00:24:43.590Z,14.10
2023-04-07T00:29:36.910Z,14.73
2023-04-07T00:34:30.499Z,15.83
2023-04-07T00:39:25.803Z,15.20
2023-04-07T00:44:19.099Z,15.40
2023-04-07T00:49:13.413Z,15.83
2023-04-07T00:54:07.516Z,15.60
2023-04-07T00:59:02.088Z,16.10
2023-04-07T01:04:02.954Z,17.20
2023-04-07T01:09:03.857Z,16.03
2023-04-07T01:14:01.637Z,15.63
2023-04-07T01:19:10.583Z,18.17
2023-04-07T01:24:24.234Z,16.70
2023-04-07T01:29:35.738Z,15.77
2023-04-07T01:34:31.774Z,18.67
2023-04-07T01:39:26.416Z,18.47
2023-04-07T01:44:21.119Z,16.37
2023-04-07T01:49:16.525Z,19.53
2023-04-07T01:54:10.855Z,16.40
2023-04-07T01:59:04.564Z,18.10
2023-04-07T02:04:07.922Z,18.47
2023-04-07T02:09:08.399Z,17.00
2023-04-07T02:14:04.407Z,17.60
2023-04-07T02:19:04.786Z,18.50
2023-04-07T02:23:58.293Z,21.67
2023-04-07T02:28:53.111Z,15.33
2023-04-07T02:33:46.351Z,18.33
2023-04-07T02:38:39.590Z,16.47
2023-04-07T02:43:32.838Z,16.83
2023-04-07T02:48:27.622Z,15.90
2023-04-07T02:53:20.887Z,22.20
2023-04-07T02:58:14.090Z,17.33
2023-04-07T03:03:10.362Z,17.43
2023-04-07T03:08:08.225Z,16.30
2023-04-07T03:13:01.564Z,16.87
2023-04-07T03:17:56.301Z,25.47
2023-04-07T03:22:50.060Z,17.90
2023-04-07T03:27:53.107Z,21.67
2023-04-07T03:32:47.087Z,19.67
2023-04-07T03:37:40.402Z,18.57
2023-04-07T03:42:39.215Z,19.23
2023-04-07T03:47:35.562Z,17.17
2023-04-07T03:52:31.250Z,21.97
2023-04-07T03:57:32.157Z,21.37
2023-04-07T04:02:25.488Z,15.50
2023-04-07T04:07:23.803Z,17.33
2023-04-07T04:12:19.992Z,17.77
2023-04-07T04:17:27.303Z,17.87
2023-04-07T04:22:20.808Z,21.53
2023-04-07T04:27:25.437Z,22.70
2023-04-07T04:32:25.608Z,20.00
2023-04-07T04:37:19.142Z,22.07
2023-04-07T04:42:13.535Z,19.87
2023-04-07T04:47:08.690Z,23.40
2023-04-07T04:52:06.566Z,25.90
2023-04-07T04:57:16.322Z,30.93
2023-04-07T05:02:26.690Z,25.93
2023-04-07T05:07:20.574Z,21.98
2023-04-07T05:12:14.139Z,21.13
2023-04-07T05:17:13.025Z,20.50
2023-04-07T05:22:07.639Z,19.00
2023-04-07T05:27:09.215Z,20.67
2023-04-07T05:32:03.994Z,21.37
2023-04-07T05:36:58.105Z,23.97
2023-04-07T05:41:53.606Z,17.50
2023-04-07T05:46:51.210Z,15.15
2023-04-07T05:51:48.752Z,19.17
2023-04-07T05:56:42.699Z,19.60
2023-04-07T06:01:37.640Z,17.53
2023-04-07T06:06:31.864Z,18.55
2023-04-07T06:11:31.091Z,18.60
2023-04-07T06:16:25.563Z,19.00
2023-04-07T06:21:20.326Z,19.05
2023-04-07T06:26:16.433Z,20.35
2023-04-07T06:31:12.855Z,17.35
2023-04-07T06:36:11.471Z,17.60
2023-04-07T06:41:06.703Z,21.55
2023-04-07T06:46:00.174Z,20.40
2023-04-07T06:50:53.895Z,21.70
2023-04-07T06:55:47.226Z,18.80
2023-04-07T07:00:41.885Z,16.63
2023-04-07T07:05:35.294Z,21.50
2023-04-07T07:10:28.821Z,18.45
2023-04-07T07:15:22.041Z,19.13
2023-04-07T07:20:17.451Z,16.77
2023-04-07T07:25:11.150Z,16.77
2023-04-07T07:30:07.624Z,17.77
2023-04-07T07:35:04.242Z,15.20
2023-04-07T07:39:58.862Z,18.55
2023-04-07T07:44:52.228Z,19.48
2023-04-07T07:49:45.463Z,16.92
2023-04-07T07:54:38.704Z,19.70
2023-04-07T07:59:44.425Z,17.65
2023-04-07T08:04:40.714Z,16.52
2023-04-07T08:09:33.984Z,17.13
2023-04-07T08:14:27.400Z,19.85
2023-04-07T08:19:22.209Z,21.42
2023-04-07T08:24:15.713Z,24.52
2023-04-07T08:29:08.995Z,14.95
2023-04-07T08:34:02.180Z,19.52
2023-04-07T08:38:58.782Z,17.73
2023-04-07T08:43:53.813Z,17.33
2023-04-07T08:48:52.606Z,17.05
2023-04-07T08:53:52.914Z,15.50
2023-04-07T09:03:42.520Z,16.85
2023-04-07T09:08:35.818Z,19.13
2023-04-07T09:13:29.341Z,17.90
2023-04-07T09:18:24.162Z,15.60
2023-04-07T09:23:29.934Z,15.73
2023-04-07T09:28:23.446Z,17.10
2023-04-07T09:33:18.049Z,12.25
2023-04-07T09:38:12.605Z,13.05
2023-04-07T09:43:07.275Z,14.48
2023-04-07T09:48:00.665Z,12.55
2023-04-07T09:52:54.127Z,12.07
2023-04-07T09:57:50.569Z,12.38
2023-04-07T10:02:44.901Z,14.40
2023-04-07T10:07:38.554Z,14.40
2023-04-07T10:12:34.563Z,13.43
2023-04-07T10:17:29.695Z,14.77
2023-04-07T10:22:23.924Z,11.75
2023-04-07T10:27:21.051Z,9.73
2023-04-07T10:32:14.844Z,12.13
2023-04-07T10:37:14.465Z,13.20
2023-04-07T10:42:08.125Z,11.13
2023-04-07T10:47:10.963Z,10.77
2023-04-07T10:52:26.745Z,11.70
2023-04-07T10:57:21.355Z,14.20
2023-04-07T11:02:35.114Z,14.98
2023-04-07T11:07:48.975Z,14.40
2023-04-07T11:12:42.222Z,15.70
2023-04-07T11:17:35.740Z,11.52
2023-04-07T11:22:30.630Z,11.57
2023-04-07T11:27:25.722Z,12.55
2023-04-07T11:32:26.160Z,11.45
2023-04-07T11:37:24.556Z,11.63
2023-04-07T11:42:17.770Z,11.95
2023-04-07T11:47:14.512Z,16.13
2023-04-07T11:52:09.123Z,12.35
2023-04-07T11:57:05.342Z,11.88
2023-04-07T12:02:01.427Z,15.25
2023-04-07T12:06:56.193Z,14.55
2023-04-07T12:11:51.671Z,12.13
2023-04-07T12:16:45.425Z,11.00
2023-04-07T12:21:38.573Z,12.00
2023-04-07T12:26:33.189Z,11.75
2023-04-07T12:31:26.477Z,11.75
2023-04-07T12:36:19.577Z,13.20
2023-04-07T12:41:12.775Z,11.25
2023-04-07T12:46:07.394Z,11.18
2023-04-07T12:51:01.926Z,13.93
2023-04-07T12:55:55.169Z,18.98
2023-04-07T13:00:48.658Z,14.10
2023-04-07T13:05:43.207Z,15.68
2023-04-07T13:10:36.359Z,20.15
2023-04-07T13:15:29.623Z,21.27
2023-04-07T13:20:22.868Z,18.90
2023-04-07T13:25:17.406Z,24.17
2023-04-07T13:30:11.686Z,20.17
2023-04-07T13:35:05.557Z,17.33
2023-04-07T13:39:58.829Z,19.00
2023-04-07T13:44:54.593Z,21.50
2023-04-07T13:49:48.714Z,26.38
2023-04-07T13:54:42.153Z,15.95
2023-04-07T13:59:35.414Z,18.88
2023-04-07T14:04:30.182Z,17.23
2023-04-07T14:09:23.655Z,26.67
2023-04-07T14:14:17.849Z,20.80
2023-04-07T14:19:11.322Z,18.90
2023-04-07T14:24:05.899Z,13.05
2023-04-07T14:28:59.155Z,15.88
2023-04-07T14:33:52.878Z,13.20
2023-04-07T14:38:46.025Z,14.45
2023-04-07T14:43:41.346Z,16.50
2023-04-07T14:48:35.213Z,15.55
2023-04-07T14:53:31.070Z,13.02
2023-04-07T14:58:26.938Z,15.80
2023-04-07T15:03:21.718Z,11.93
2023-04-07T15:08:15.208Z,20.35
2023-04-07T15:13:08.326Z,19.13
2023-04-07T15:18:01.602Z,16.80
2023-04-07T15:22:57.421Z,22.42
2023-04-07T15:27:50.801Z,26.42
2023-04-07T15:32:44.410Z,24.98
2023-04-07T15:37:38.550Z,22.58
2023-04-07T15:42:35.704Z,25.40
2023-04-07T15:47:29.037Z,16.77
2023-04-07T15:52:22.231Z,17.67
2023-04-07T15:57:16.884Z,18.27
2023-04-07T16:02:14.034Z,16.75
2023-04-07T16:07:07.613Z,17.02
2023-04-07T16:12:00.992Z,16.70
2023-04-07T16:16:58.679Z,15.50
2023-04-07T16:21:54.181Z,18.63
2023-04-07T16:26:50.456Z,18.23
2023-04-07T16:31:44.687Z,18.90
2023-04-07T16:36:38.046Z,20.13
2023-04-07T16:41:32.596Z,18.73
2023-04-07T16:46:28.880Z,16.58
2023-04-07T16:51:22.663Z,17.88
2023-04-07T16:56:21.566Z,20.10
2023-04-07T17:01:20.112Z,18.63
2023-04-07T17:06:14.526Z,16.77
2023-04-07T17:11:09.108Z,16.02
2023-04-07T17:16:03.957Z,17.05
2023-04-07T17:21:09.459Z,21.77
2023-04-07T17:26:02.814Z,22.42
2023-04-07T17:31:12.072Z,20.90
2023-04-07T17:36:07.258Z,28.75
2023-04-07T17:41:01.943Z,20.02
2023-04-07T17:45:55.601Z,22.40
2023-04-07T17:50:51.330Z,22.58
2023-04-07T17:55:56.741Z,21.67
2023-04-07T18:00:56.860Z,18.95
2023-04-07T18:06:01.965Z,17.98
2023-04-07T18:11:07.223Z,18.20
2023-04-07T18:16:16.033Z,20.85
2023-04-07T18:21:21.166Z,18.00
2023-04-07T18:26:20.694Z,17.90
2023-04-07T18:31:15.438Z,19.10
2023-04-07T18:36:11.183Z,25.55
2023-04-07T18:41:05.112Z,20.40
2023-04-07T18:46:01.665Z,21.35
2023-04-07T18:50:57.869Z,20.83
2023-04-07T18:55:54.159Z,19.90
2023-04-07T19:00:50.841Z,22.30
2023-04-07T19:05:47.806Z,28.25
2023-04-07T19:10:42.317Z,22.80
2023-04-07T19:15:38.450Z,22.33
2023-04-07T19:20:33.769Z,19.77
2023-04-07T19:25:31.889Z,24.48
2023-04-07T19:30:25.666Z,25.73
2023-04-07T19:35:20.284Z,26.90
2023-04-07T19:40:19.176Z,24.52
2023-04-07T19:45:15.164Z,28.20
2023-04-07T19:50:11.272Z,25.35
2023-04-07T19:55:13.232Z,26.98
2023-04-07T20:00:08.648Z,29.17
2023-04-07T20:05:06.007Z,31.90
2023-04-07T20:10:00.115Z,32.10
2023-04-07T20:14:56.474Z,25.38
2023-04-07T20:19:50.749Z,51.42
2023-04-07T20:24:45.748Z,20.77
2023-04-07T20:29:46.433Z,24.63
2023-04-07T20:34:42.344Z,22.55
2023-04-07T20:39:35.739Z,23.45
2023-04-07T20:44:31.582Z,24.60
2023-04-07T20:49:25.133Z,23.52
2023-04-07T20:54:23.581Z,22.50
2023-04-07T20:59:17.129Z,22.55
2023-04-07T21:04:12.320Z,26.10
2023-04-07T21:09:10.528Z,22.67
2023-04-07T21:14:06.181Z,24.13
2023-04-07T21:18:59.639Z,24.30
2023-04-07T21:23:54.781Z,23.50
2023-04-07T21:28:49.190Z,24.13
2023-04-07T21:33:44.303Z,24.73
2023-04-07T21:38:41.160Z,26.50
2023-04-07T21:43:36.406Z,23.15
2023-04-07T21:48:30.487Z,25.33
2023-04-07T21:53:26.126Z,25.63
2023-04-07T21:58:19.957Z,25.60
2023-04-07T22:03:15.291Z,22.48
2023-04-07T22:08:08.989Z,26.38
2023-04-07T22:13:02.489Z,29.35
2023-04-07T22:17:56.465Z,27.42
2023-04-07T22:22:54.224Z,25.45
2023-04-07T22:27:47.648Z,20.85
2023-04-07T22:32:46.069Z,29.55
2023-04-07T22:37:39.621Z,27.50
2023-04-07T22:42:36.267Z,26.38
2023-04-07T22:47:29.936Z,32.13
2023-04-07T22:52:23.323Z,30.20
2023-04-07T22:57:16.825Z,32.90
2023-04-07T23:02:12.886Z,24.80
2023-04-07T23:07:06.422Z,27.33
2023-04-07T23:11:59.845Z,29.73
2023-04-07T23:16:54.678Z,29.27
2023-04-07T23:21:49.498Z,27.15
2023-04-07T23:26:42.778Z,26.80
2023-04-07T23:31:36.338Z,26.42
2023-04-07T23:36:29.736Z,28.30
2023-04-07T23:41:27.316Z,25.67
2023-04-07T23:46:21.118Z,25.33
2023-04-07T23:51:14.557Z,26.80
2023-04-07T23:56:08.400Z,29.45
